Terminal Aerodrome Forecast
Issued by NWS Charleston, WV

Current Version | Previous Version | Text Only | Print | Product List | Glossary Off
Versions: 1 2 3 4 5 6 7 8 9 10 11 12 13 14 15 16 17 18 19 20 21 22 23 24 25

052
FTUS41 KRLX 021457 AAA
TAFEKN
TAF AMD
KEKN 021457Z 0215/0312 VRB03KT P6SM BKN030 OVC050
     FM021600 25011G18KT P6SM BKN035
     FM022300 27007KT P6SM -SHRA VCTS BKN040CB
     FM030300 00000KT 2SM SHRA BR BKN007 OVC015=

USA.gov is the U.S. government's official web portal to all federal, state and local government web resources and services.